Baddeck, Canada
Current Conditions -  °F | °C
As of 10:00 AM on Monday 20 Oct 2014 (Local Time) from CYQY Reporting Station
Overcast Overcast  
Wind Chill: 39°   Ceiling: 1600
Heat Index: 46°   Visibility: 15mi
Dew Point: 43°   Wind: 18mph
Humidity: 87%   Direction: 240°WSW
Pressure: 29.51"   Gusts: 30mph
Location:  46.1°N, 60.75°W
Report Text: CYQY 201300Z 24016G26KT 15SM OVC016 08/06 A2951 RMK SC8 PRESRR SLP994
Loading
Personal Weather Stations






























Interactive Weather Map
Tropical Storm Tracking
New forecast layout! Learn more

10-Day Weather Forecast

Advertisements
Track Severe Weather on mobile